Haverstraw, New York
Current Conditions -  °F | °C
As of 1:56 PM on Sunday 23 Nov 2014 (Local Time) from KHPN Reporting Station
Clear Clear  
Wind Chill: 56°   Ceiling: Unl
Heat Index: 56°   Visibility: 10mi
Dew Point: 25°   Wind: 8mph
Humidity: 30%   Direction: 170°S
Pressure: 30.11"   Gusts: NA
Location:  41.2°N, 73.96°W
Report Text: KHPN 231856Z 17007KT 10SM CLR 13/M04 A3011 RMK AO2 SLP199 T01331039
Loading
Personal Weather Stations






























Interactive Weather Map New forecast layout! Learn more

10-Day Weather Forecast

Advertisements
Track Severe Weather on mobile